sensor_id;sensor_type;location;lat;lon;timestamp;P1;durP1;ratioP1;P2;durP2;ratioP2
16973;SDS011;8603;46.944;7.412;2022-09-09T00:02:00;1.60;;;1.37;;
16973;SDS011;8603;46.944;7.412;2022-09-09T00:04:48;2.37;;;1.10;;
16973;SDS011;8603;46.944;7.412;2022-09-09T00:07:34;2.40;;;1.40;;
16973;SDS011;8603;46.944;7.412;2022-09-09T00:15:25;1.70;;;1.30;;
16973;SDS011;8603;46.944;7.412;2022-09-09T00:18:15;2.47;;;1.47;;
16973;SDS011;8603;46.944;7.412;2022-09-09T00:23:34;2.17;;;1.40;;
16973;SDS011;8603;46.944;7.412;2022-09-09T00:26:14;1.90;;;1.50;;
16973;SDS011;8603;46.944;7.412;2022-09-09T00:28:52;2.60;;;1.60;;
16973;SDS011;8603;46.944;7.412;2022-09-09T00:31:27;1.47;;;1.30;;
16973;SDS011;8603;46.944;7.412;2022-09-09T00:33:55;1.83;;;1.50;;
16973;SDS011;8603;46.944;7.412;2022-09-09T00:36:27;1.57;;;1.20;;
16973;SDS011;8603;46.944;7.412;2022-09-09T00:39:01;2.50;;;1.63;;
16973;SDS011;8603;46.944;7.412;2022-09-09T00:49:28;2.73;;;1.70;;
16973;SDS011;8603;46.944;7.412;2022-09-09T00:57:19;2.97;;;1.50;;
16973;SDS011;8603;46.944;7.412;2022-09-09T00:59:57;1.63;;;1.30;;
16973;SDS011;8603;46.944;7.412;2022-09-09T01:05:39;3.00;;;1.60;;
16973;SDS011;8603;46.944;7.412;2022-09-09T01:08:53;3.77;;;1.87;;
16973;SDS011;8603;46.944;7.412;2022-09-09T01:16:59;2.57;;;1.23;;
16973;SDS011;8603;46.944;7.412;2022-09-09T01:19:37;2.40;;;1.30;;
16973;SDS011;8603;46.944;7.412;2022-09-09T01:24:38;2.13;;;1.43;;
16973;SDS011;8603;46.944;7.412;2022-09-09T01:27:11;2.40;;;1.50;;
16973;SDS011;8603;46.944;7.412;2022-09-09T01:29:38;1.30;;;1.20;;
16973;SDS011;8603;46.944;7.412;2022-09-09T01:37:57;2.10;;;1.20;;
16973;SDS011;8603;46.944;7.412;2022-09-09T01:40:24;2.10;;;1.30;;
16973;SDS011;8603;46.944;7.412;2022-09-09T01:42:51;1.30;;;1.20;;
16973;SDS011;8603;46.944;7.412;2022-09-09T01:45:17;1.70;;;1.23;;
16973;SDS011;8603;46.944;7.412;2022-09-09T01:47:43;2.23;;;1.33;;
16973;SDS011;8603;46.944;7.412;2022-09-09T01:50:10;4.23;;;1.30;;
16973;SDS011;8603;46.944;7.412;2022-09-09T01:52:39;1.87;;;1.10;;
16973;SDS011;8603;46.944;7.412;2022-09-09T01:55:07;1.27;;;1.17;;
16973;SDS011;8603;46.944;7.412;2022-09-09T02:00:25;1.53;;;1.20;;
16973;SDS011;8603;46.944;7.412;2022-09-09T02:05:34;4.40;;;1.53;;
16973;SDS011;8603;46.944;7.412;2022-09-09T02:08:06;2.27;;;1.17;;
16973;SDS011;8603;46.944;7.412;2022-09-09T02:11:13;1.30;;;1.20;;
16973;SDS011;8603;46.944;7.412;2022-09-09T02:13:35;1.50;;;1.20;;
16973;SDS011;8603;46.944;7.412;2022-09-09T02:16:04;2.87;;;1.40;;
16973;SDS011;8603;46.944;7.412;2022-09-09T02:18:48;1.83;;;1.03;;
16973;SDS011;8603;46.944;7.412;2022-09-09T02:21:18;3.57;;;1.40;;
16973;SDS011;8603;46.944;7.412;2022-09-09T02:23:43;3.37;;;1.50;;
16973;SDS011;8603;46.944;7.412;2022-09-09T02:26:14;3.70;;;1.20;;
16973;SDS011;8603;46.944;7.412;2022-09-09T02:28:45;1.37;;;1.10;;
16973;SDS011;8603;46.944;7.412;2022-09-09T02:31:12;3.50;;;1.60;;
16973;SDS011;8603;46.944;7.412;2022-09-09T02:33:43;3.33;;;1.23;;
16973;SDS011;8603;46.944;7.412;2022-09-09T02:36:12;2.97;;;1.30;;
16973;SDS011;8603;46.944;7.412;2022-09-09T02:38:45;2.40;;;1.40;;
16973;SDS011;8603;46.944;7.412;2022-09-09T02:41:23;1.97;;;1.47;;
16973;SDS011;8603;46.944;7.412;2022-09-09T02:47:14;1.80;;;1.40;;
16973;SDS011;8603;46.944;7.412;2022-09-09T02:49:55;4.03;;;1.30;;
16973;SDS011;8603;46.944;7.412;2022-09-09T02:55:04;2.90;;;1.47;;
16973;SDS011;8603;46.944;7.412;2022-09-09T02:57:49;3.33;;;1.30;;
16973;SDS011;8603;46.944;7.412;2022-09-09T03:00:34;1.47;;;1.20;;
16973;SDS011;8603;46.944;7.412;2022-09-09T03:03:13;3.80;;;1.33;;
16973;SDS011;8603;46.944;7.412;2022-09-09T03:05:43;1.30;;;1.20;;
16973;SDS011;8603;46.944;7.412;2022-09-09T03:08:11;2.97;;;1.30;;
16973;SDS011;8603;46.944;7.412;2022-09-09T03:10:48;1.13;;;1.07;;
16973;SDS011;8603;46.944;7.412;2022-09-09T03:13:25;1.40;;;1.20;;
16973;SDS011;8603;46.944;7.412;2022-09-09T03:15:56;1.93;;;1.17;;
16973;SDS011;8603;46.944;7.412;2022-09-09T03:18:29;2.83;;;1.30;;
16973;SDS011;8603;46.944;7.412;2022-09-09T03:20:59;2.33;;;1.10;;
16973;SDS011;8603;46.944;7.412;2022-09-09T03:23:27;2.07;;;1.20;;
16973;SDS011;8603;46.944;7.412;2022-09-09T03:25:54;2.37;;;1.07;;
16973;SDS011;8603;46.944;7.412;2022-09-09T03:28:28;1.10;;;1.00;;
16973;SDS011;8603;46.944;7.412;2022-09-09T03:31:07;2.17;;;1.17;;
16973;SDS011;8603;46.944;7.412;2022-09-09T03:33:42;1.47;;;1.20;;
16973;SDS011;8603;46.944;7.412;2022-09-09T03:36:08;2.03;;;1.10;;
16973;SDS011;8603;46.944;7.412;2022-09-09T03:38:37;1.43;;;1.30;;
16973;SDS011;8603;46.944;7.412;2022-09-09T03:41:03;1.37;;;1.17;;
16973;SDS011;8603;46.944;7.412;2022-09-09T03:43:31;1.73;;;1.30;;
16973;SDS011;8603;46.944;7.412;2022-09-09T03:45:58;1.40;;;1.30;;
16973;SDS011;8603;46.944;7.412;2022-09-09T03:48:25;1.30;;;1.20;;
16973;SDS011;8603;46.944;7.412;2022-09-09T03:50:53;1.37;;;1.20;;
16973;SDS011;8603;46.944;7.412;2022-09-09T03:53:22;1.27;;;1.17;;
16973;SDS011;8603;46.944;7.412;2022-09-09T03:55:50;2.53;;;1.20;;
16973;SDS011;8603;46.944;7.412;2022-09-09T03:58:19;1.83;;;1.33;;
16973;SDS011;8603;46.944;7.412;2022-09-09T04:00:56;1.57;;;1.30;;
16973;SDS011;8603;46.944;7.412;2022-09-09T04:03:24;1.97;;;1.17;;
16973;SDS011;8603;46.944;7.412;2022-09-09T04:05:52;1.40;;;1.30;;
16973;SDS011;8603;46.944;7.412;2022-09-09T04:08:23;2.57;;;1.40;;
16973;SDS011;8603;46.944;7.412;2022-09-09T04:11:00;1.93;;;1.30;;
16973;SDS011;8603;46.944;7.412;2022-09-09T04:13:32;3.70;;;1.47;;
16973;SDS011;8603;46.944;7.412;2022-09-09T04:16:03;2.37;;;1.50;;
16973;SDS011;8603;46.944;7.412;2022-09-09T04:18:32;4.23;;;1.63;;
16973;SDS011;8603;46.944;7.412;2022-09-09T04:21:00;3.03;;;1.80;;
16973;SDS011;8603;46.944;7.412;2022-09-09T04:23:29;1.83;;;1.53;;
16973;SDS011;8603;46.944;7.412;2022-09-09T04:25:56;2.20;;;1.50;;
16973;SDS011;8603;46.944;7.412;2022-09-09T04:28:23;1.40;;;1.30;;
16973;SDS011;8603;46.944;7.412;2022-09-09T04:30:50;1.40;;;1.30;;
16973;SDS011;8603;46.944;7.412;2022-09-09T04:33:17;2.57;;;1.43;;
16973;SDS011;8603;46.944;7.412;2022-09-09T04:35:44;3.13;;;1.53;;
16973;SDS011;8603;46.944;7.412;2022-09-09T04:38:10;3.17;;;1.90;;
16973;SDS011;8603;46.944;7.412;2022-09-09T04:40:36;2.83;;;1.67;;
16973;SDS011;8603;46.944;7.412;2022-09-09T04:43:02;1.60;;;1.50;;
16973;SDS011;8603;46.944;7.412;2022-09-09T04:45:31;1.20;;;1.07;;
16973;SDS011;8603;46.944;7.412;2022-09-09T04:47:57;2.40;;;1.40;;
16973;SDS011;8603;46.944;7.412;2022-09-09T04:50:23;1.70;;;1.60;;
16973;SDS011;8603;46.944;7.412;2022-09-09T04:52:48;3.00;;;1.23;;
16973;SDS011;8603;46.944;7.412;2022-09-09T04:55:14;1.93;;;1.50;;
16973;SDS011;8603;46.944;7.412;2022-09-09T04:57:39;1.77;;;1.47;;
16973;SDS011;8603;46.944;7.412;2022-09-09T05:00:06;1.93;;;1.50;;
16973;SDS011;8603;46.944;7.412;2022-09-09T05:02:32;2.70;;;1.50;;
16973;SDS011;8603;46.944;7.412;2022-09-09T05:04:58;4.47;;;1.80;;
16973;SDS011;8603;46.944;7.412;2022-09-09T05:07:25;2.67;;;1.77;;
16973;SDS011;8603;46.944;7.412;2022-09-09T05:09:52;3.50;;;1.60;;
16973;SDS011;8603;46.944;7.412;2022-09-09T05:12:17;3.13;;;1.80;;
16973;SDS011;8603;46.944;7.412;2022-09-09T05:14:43;3.40;;;1.80;;
16973;SDS011;8603;46.944;7.412;2022-09-09T05:17:09;1.80;;;1.50;;
16973;SDS011;8603;46.944;7.412;2022-09-09T05:19:35;2.87;;;1.77;;
16973;SDS011;8603;46.944;7.412;2022-09-09T05:22:01;1.97;;;1.70;;
16973;SDS011;8603;46.944;7.412;2022-09-09T05:24:27;1.63;;;1.53;;
16973;SDS011;8603;46.944;7.412;2022-09-09T05:26:53;1.60;;;1.50;;
16973;SDS011;8603;46.944;7.412;2022-09-09T05:29:18;3.53;;;1.73;;
16973;SDS011;8603;46.944;7.412;2022-09-09T05:31:44;2.67;;;1.73;;
16973;SDS011;8603;46.944;7.412;2022-09-09T05:34:10;2.90;;;1.90;;
16973;SDS011;8603;46.944;7.412;2022-09-09T05:36:36;2.07;;;1.77;;
16973;SDS011;8603;46.944;7.412;2022-09-09T05:39:02;2.33;;;1.70;;
16973;SDS011;8603;46.944;7.412;2022-09-09T05:41:28;2.40;;;1.80;;
16973;SDS011;8603;46.944;7.412;2022-09-09T05:43:54;2.43;;;1.53;;
16973;SDS011;8603;46.944;7.412;2022-09-09T05:46:20;3.50;;;1.77;;
16973;SDS011;8603;46.944;7.412;2022-09-09T05:48:47;2.00;;;1.53;;
16973;SDS011;8603;46.944;7.412;2022-09-09T05:51:21;2.90;;;1.70;;
16973;SDS011;8603;46.944;7.412;2022-09-09T05:53:49;1.40;;;1.30;;
16973;SDS011;8603;46.944;7.412;2022-09-09T05:56:20;1.40;;;1.30;;
16973;SDS011;8603;46.944;7.412;2022-09-09T05:58:53;1.33;;;1.23;;
16973;SDS011;8603;46.944;7.412;2022-09-09T06:01:24;1.87;;;1.57;;
16973;SDS011;8603;46.944;7.412;2022-09-09T06:03:52;1.67;;;1.50;;
16973;SDS011;8603;46.944;7.412;2022-09-09T06:06:31;3.03;;;1.47;;
16973;SDS011;8603;46.944;7.412;2022-09-09T06:09:01;2.67;;;1.50;;
16973;SDS011;8603;46.944;7.412;2022-09-09T06:11:28;4.82;;;1.45;;
16973;SDS011;8603;46.944;7.412;2022-09-09T06:13:56;2.25;;;1.45;;
16973;SDS011;8603;46.944;7.412;2022-09-09T06:16:24;2.15;;;1.45;;
16973;SDS011;8603;46.944;7.412;2022-09-09T06:18:52;4.35;;;1.40;;
16973;SDS011;8603;46.944;7.412;2022-09-09T06:21:23;1.40;;;1.30;;
16973;SDS011;8603;46.944;7.412;2022-09-09T06:23:54;1.92;;;1.40;;
16973;SDS011;8603;46.944;7.412;2022-09-09T06:26:20;1.92;;;1.50;;
16973;SDS011;8603;46.944;7.412;2022-09-09T06:28:49;2.70;;;1.63;;
16973;SDS011;8603;46.944;7.412;2022-09-09T06:31:17;1.55;;;1.40;;
16973;SDS011;8603;46.944;7.412;2022-09-09T06:33:46;1.52;;;1.30;;
16973;SDS011;8603;46.944;7.412;2022-09-09T06:36:15;2.15;;;1.25;;
16973;SDS011;8603;46.944;7.412;2022-09-09T06:38:43;6.57;;;1.70;;
16973;SDS011;8603;46.944;7.412;2022-09-09T06:41:09;2.22;;;1.48;;
16973;SDS011;8603;46.944;7.412;2022-09-09T06:43:36;2.08;;;1.55;;
16973;SDS011;8603;46.944;7.412;2022-09-09T06:46:06;2.35;;;1.38;;
16973;SDS011;8603;46.944;7.412;2022-09-09T06:48:38;2.88;;;1.50;;
16973;SDS011;8603;46.944;7.412;2022-09-09T06:51:08;1.85;;;1.45;;
16973;SDS011;8603;46.944;7.412;2022-09-09T06:53:37;2.33;;;1.67;;
16973;SDS011;8603;46.944;7.412;2022-09-09T06:58:35;3.95;;;1.33;;
16973;SDS011;8603;46.944;7.412;2022-09-09T07:01:11;1.30;;;1.20;;
16973;SDS011;8603;46.944;7.412;2022-09-09T07:03:38;2.08;;;1.17;;
16973;SDS011;8603;46.944;7.412;2022-09-09T07:06:04;3.03;;;1.23;;
16973;SDS011;8603;46.944;7.412;2022-09-09T07:08:30;3.20;;;1.33;;
16973;SDS011;8603;46.944;7.412;2022-09-09T07:11:06;1.33;;;1.23;;
16973;SDS011;8603;46.944;7.412;2022-09-09T07:13:33;1.40;;;1.20;;
16973;SDS011;8603;46.944;7.412;2022-09-09T07:16:07;1.65;;;1.25;;
16973;SDS011;8603;46.944;7.412;2022-09-09T07:18:35;2.08;;;1.30;;
16973;SDS011;8603;46.944;7.412;2022-09-09T07:21:01;1.95;;;1.40;;
16973;SDS011;8603;46.944;7.412;2022-09-09T07:23:28;1.60;;;1.40;;
16973;SDS011;8603;46.944;7.412;2022-09-09T07:25:55;1.05;;;1.00;;
16973;SDS011;8603;46.944;7.412;2022-09-09T07:28:21;1.50;;;1.33;;
16973;SDS011;8603;46.944;7.412;2022-09-09T07:30:54;2.13;;;1.45;;
16973;SDS011;8603;46.944;7.412;2022-09-09T07:33:24;2.35;;;1.30;;
16973;SDS011;8603;46.944;7.412;2022-09-09T07:35:51;1.42;;;1.20;;
16973;SDS011;8603;46.944;7.412;2022-09-09T07:38:17;2.53;;;1.40;;
16973;SDS011;8603;46.944;7.412;2022-09-09T07:40:43;3.75;;;1.45;;
16973;SDS011;8603;46.944;7.412;2022-09-09T07:43:09;2.88;;;1.20;;
16973;SDS011;8603;46.944;7.412;2022-09-09T07:45:36;3.53;;;1.40;;
16973;SDS011;8603;46.944;7.412;2022-09-09T07:48:02;3.15;;;1.40;;
16973;SDS011;8603;46.944;7.412;2022-09-09T07:50:28;1.40;;;1.30;;
16973;SDS011;8603;46.944;7.412;2022-09-09T07:52:54;2.17;;;1.42;;
16973;SDS011;8603;46.944;7.412;2022-09-09T07:55:20;1.20;;;1.05;;
16973;SDS011;8603;46.944;7.412;2022-09-09T07:57:46;2.00;;;1.02;;
16973;SDS011;8603;46.944;7.412;2022-09-09T08:00:12;1.05;;;0.93;;
16973;SDS011;8603;46.944;7.412;2022-09-09T08:02:40;1.92;;;1.20;;
16973;SDS011;8603;46.944;7.412;2022-09-09T08:05:06;2.60;;;1.20;;
16973;SDS011;8603;46.944;7.412;2022-09-09T08:07:31;1.98;;;1.30;;
16973;SDS011;8603;46.944;7.412;2022-09-09T08:09:57;2.35;;;1.15;;
16973;SDS011;8603;46.944;7.412;2022-09-09T08:12:23;2.50;;;1.30;;
16973;SDS011;8603;46.944;7.412;2022-09-09T08:14:49;3.72;;;1.20;;
16973;SDS011;8603;46.944;7.412;2022-09-09T08:17:16;2.45;;;1.00;;
16973;SDS011;8603;46.944;7.412;2022-09-09T08:19:42;2.15;;;0.90;;
16973;SDS011;8603;46.944;7.412;2022-09-09T08:22:07;2.17;;;0.95;;
16973;SDS011;8603;46.944;7.412;2022-09-09T08:24:33;1.77;;;1.08;;
16973;SDS011;8603;46.944;7.412;2022-09-09T08:26:59;2.60;;;1.10;;
16973;SDS011;8603;46.944;7.412;2022-09-09T08:29:24;1.65;;;1.00;;
16973;SDS011;8603;46.944;7.412;2022-09-09T08:35:23;2.75;;;1.00;;
16973;SDS011;8603;46.944;7.412;2022-09-09T08:37:52;1.83;;;1.00;;
16973;SDS011;8603;46.944;7.412;2022-09-09T08:40:21;2.60;;;1.10;;
16973;SDS011;8603;46.944;7.412;2022-09-09T08:42:54;2.25;;;1.10;;
16973;SDS011;8603;46.944;7.412;2022-09-09T08:45:24;4.60;;;1.20;;
16973;SDS011;8603;46.944;7.412;2022-09-09T08:51:00;3.00;;;1.27;;
16973;SDS011;8603;46.944;7.412;2022-09-09T08:53:34;3.60;;;1.00;;
16973;SDS011;8603;46.944;7.412;2022-09-09T08:56:08;2.13;;;1.17;;
16973;SDS011;8603;46.944;7.412;2022-09-09T08:58:41;2.45;;;1.10;;
16973;SDS011;8603;46.944;7.412;2022-09-09T09:11:47;2.65;;;1.30;;
16973;SDS011;8603;46.944;7.412;2022-09-09T09:14:26;3.05;;;1.20;;
16973;SDS011;8603;46.944;7.412;2022-09-09T09:17:02;3.50;;;1.30;;
16973;SDS011;8603;46.944;7.412;2022-09-09T09:19:32;1.67;;;1.05;;
16973;SDS011;8603;46.944;7.412;2022-09-09T09:25:14;1.73;;;1.00;;
16973;SDS011;8603;46.944;7.412;2022-09-09T09:27:49;1.58;;;1.10;;
16973;SDS011;8603;46.944;7.412;2022-09-09T09:35:45;2.95;;;1.35;;
16973;SDS011;8603;46.944;7.412;2022-09-09T09:38:23;3.08;;;1.42;;
16973;SDS011;8603;46.944;7.412;2022-09-09T09:40:54;2.33;;;1.20;;
16973;SDS011;8603;46.944;7.412;2022-09-09T09:43:40;4.10;;;1.42;;
16973;SDS011;8603;46.944;7.412;2022-09-09T09:46:18;1.83;;;1.30;;
16973;SDS011;8603;46.944;7.412;2022-09-09T09:49:00;2.22;;;1.17;;
16973;SDS011;8603;46.944;7.412;2022-09-09T09:51:28;2.97;;;1.17;;
16973;SDS011;8603;46.944;7.412;2022-09-09T09:54:03;2.58;;;1.08;;
16973;SDS011;8603;46.944;7.412;2022-09-09T09:56:41;3.70;;;1.20;;
16973;SDS011;8603;46.944;7.412;2022-09-09T09:59:21;3.72;;;1.25;;
16973;SDS011;8603;46.944;7.412;2022-09-09T10:01:48;2.95;;;1.40;;
16973;SDS011;8603;46.944;7.412;2022-09-09T10:04:16;1.50;;;1.15;;
16973;SDS011;8603;46.944;7.412;2022-09-09T10:06:48;3.85;;;1.33;;
16973;SDS011;8603;46.944;7.412;2022-09-09T10:09:20;3.22;;;1.20;;
16973;SDS011;8603;46.944;7.412;2022-09-09T10:11:59;2.03;;;1.15;;
16973;SDS011;8603;46.944;7.412;2022-09-09T10:14:40;2.92;;;1.08;;
16973;SDS011;8603;46.944;7.412;2022-09-09T10:17:27;2.20;;;1.27;;
16973;SDS011;8603;46.944;7.412;2022-09-09T10:23:05;2.20;;;1.20;;
16973;SDS011;8603;46.944;7.412;2022-09-09T10:31:26;2.88;;;1.30;;
16973;SDS011;8603;46.944;7.412;2022-09-09T10:36:52;2.42;;;1.45;;
16973;SDS011;8603;46.944;7.412;2022-09-09T10:39:25;3.88;;;1.48;;
16973;SDS011;8603;46.944;7.412;2022-09-09T10:42:09;2.67;;;1.23;;
16973;SDS011;8603;46.944;7.412;2022-09-09T10:44:58;3.58;;;1.30;;
16973;SDS011;8603;46.944;7.412;2022-09-09T10:48:24;2.97;;;1.40;;
16973;SDS011;8603;46.944;7.412;2022-09-09T10:54:44;2.97;;;1.35;;
16973;SDS011;8603;46.944;7.412;2022-09-09T11:00:05;4.50;;;1.40;;
16973;SDS011;8603;46.944;7.412;2022-09-09T11:02:39;2.72;;;1.08;;
16973;SDS011;8603;46.944;7.412;2022-09-09T11:05:10;1.52;;;1.30;;
16973;SDS011;8603;46.944;7.412;2022-09-09T11:10:20;3.95;;;1.30;;
16973;SDS011;8603;46.944;7.412;2022-09-09T11:12:48;2.50;;;1.30;;
16973;SDS011;8603;46.944;7.412;2022-09-09T11:15:18;1.45;;;1.30;;
16973;SDS011;8603;46.944;7.412;2022-09-09T11:17:49;2.05;;;1.15;;
16973;SDS011;8603;46.944;7.412;2022-09-09T11:20:19;1.88;;;1.35;;
16973;SDS011;8603;46.944;7.412;2022-09-09T11:22:48;2.80;;;1.60;;
16973;SDS011;8603;46.944;7.412;2022-09-09T11:25:26;1.75;;;1.40;;
16973;SDS011;8603;46.944;7.412;2022-09-09T11:39:25;2.45;;;1.30;;
16973;SDS011;8603;46.944;7.412;2022-09-09T11:41:51;1.38;;;1.00;;
16973;SDS011;8603;46.944;7.412;2022-09-09T11:44:18;1.35;;;1.15;;
16973;SDS011;8603;46.944;7.412;2022-09-09T11:46:51;3.25;;;1.20;;
16973;SDS011;8603;46.944;7.412;2022-09-09T11:49:26;1.25;;;1.02;;
16973;SDS011;8603;46.944;7.412;2022-09-09T11:51:53;2.15;;;1.20;;
16973;SDS011;8603;46.944;7.412;2022-09-09T11:57:26;1.70;;;1.05;;
16973;SDS011;8603;46.944;7.412;2022-09-09T11:59:57;2.33;;;1.00;;
16973;SDS011;8603;46.944;7.412;2022-09-09T12:02:24;1.80;;;1.20;;
16973;SDS011;8603;46.944;7.412;2022-09-09T12:05:05;2.78;;;1.38;;
16973;SDS011;8603;46.944;7.412;2022-09-09T12:12:43;1.92;;;1.00;;
16973;SDS011;8603;46.944;7.412;2022-09-09T12:17:47;1.23;;;1.10;;
16973;SDS011;8603;46.944;7.412;2022-09-09T12:23:04;1.23;;;0.90;;
16973;SDS011;8603;46.944;7.412;2022-09-09T12:31:43;1.00;;;0.80;;
16973;SDS011;8603;46.944;7.412;2022-09-09T12:34:41;2.05;;;1.10;;
16973;SDS011;8603;46.944;7.412;2022-09-09T12:40:15;1.50;;;1.00;;
16973;SDS011;8603;46.944;7.412;2022-09-09T12:43:14;2.28;;;0.85;;
16973;SDS011;8603;46.944;7.412;2022-09-09T12:45:54;1.50;;;1.25;;
16973;SDS011;8603;46.944;7.412;2022-09-09T12:48:53;0.95;;;0.88;;
16973;SDS011;8603;46.944;7.412;2022-09-09T12:51:22;1.70;;;0.90;;
16973;SDS011;8603;46.944;7.412;2022-09-09T12:53:54;1.30;;;1.02;;
16973;SDS011;8603;46.944;7.412;2022-09-09T12:56:21;1.35;;;0.95;;
16973;SDS011;8603;46.944;7.412;2022-09-09T12:58:51;1.02;;;0.80;;
16973;SDS011;8603;46.944;7.412;2022-09-09T13:01:20;1.65;;;1.10;;
16973;SDS011;8603;46.944;7.412;2022-09-09T13:03:48;1.85;;;0.88;;
16973;SDS011;8603;46.944;7.412;2022-09-09T13:08:48;1.55;;;1.00;;
16973;SDS011;8603;46.944;7.412;2022-09-09T13:11:22;1.98;;;0.85;;
16973;SDS011;8603;46.944;7.412;2022-09-09T13:14:01;2.55;;;0.82;;
16973;SDS011;8603;46.944;7.412;2022-09-09T13:16:32;1.88;;;1.20;;
16973;SDS011;8603;46.944;7.412;2022-09-09T13:19:00;3.08;;;0.80;;
16973;SDS011;8603;46.944;7.412;2022-09-09T13:21:32;1.83;;;0.93;;
16973;SDS011;8603;46.944;7.412;2022-09-09T13:26:54;1.77;;;1.05;;
16973;SDS011;8603;46.944;7.412;2022-09-09T13:29:50;1.52;;;1.00;;
16973;SDS011;8603;46.944;7.412;2022-09-09T13:32:20;2.38;;;1.05;;
16973;SDS011;8603;46.944;7.412;2022-09-09T13:34:50;2.58;;;0.90;;
16973;SDS011;8603;46.944;7.412;2022-09-09T13:37:36;0.93;;;0.82;;
16973;SDS011;8603;46.944;7.412;2022-09-09T13:40:06;1.10;;;0.90;;
16973;SDS011;8603;46.944;7.412;2022-09-09T13:42:43;2.58;;;1.15;;
16973;SDS011;8603;46.944;7.412;2022-09-09T13:45:16;2.45;;;1.02;;
16973;SDS011;8603;46.944;7.412;2022-09-09T13:47:47;1.85;;;1.00;;
16973;SDS011;8603;46.944;7.412;2022-09-09T13:50:25;4.18;;;1.60;;
16973;SDS011;8603;46.944;7.412;2022-09-09T13:52:52;1.98;;;1.10;;
16973;SDS011;8603;46.944;7.412;2022-09-09T13:55:20;1.73;;;1.00;;
16973;SDS011;8603;46.944;7.412;2022-09-09T13:57:54;2.65;;;1.45;;
16973;SDS011;8603;46.944;7.412;2022-09-09T14:00:31;1.30;;;1.08;;
16973;SDS011;8603;46.944;7.412;2022-09-09T14:02:59;2.00;;;1.17;;
16973;SDS011;8603;46.944;7.412;2022-09-09T14:05:28;2.42;;;1.25;;
16973;SDS011;8603;46.944;7.412;2022-09-09T14:07:57;1.27;;;1.00;;
16973;SDS011;8603;46.944;7.412;2022-09-09T14:10:23;2.78;;;1.00;;
16973;SDS011;8603;46.944;7.412;2022-09-09T14:12:48;6.25;;;1.58;;
16973;SDS011;8603;46.944;7.412;2022-09-09T14:15:14;1.38;;;1.02;;
16973;SDS011;8603;46.944;7.412;2022-09-09T14:17:40;2.33;;;1.00;;
16973;SDS011;8603;46.944;7.412;2022-09-09T14:20:06;2.38;;;1.15;;
16973;SDS011;8603;46.944;7.412;2022-09-09T14:22:34;1.98;;;1.05;;
16973;SDS011;8603;46.944;7.412;2022-09-09T14:25:01;1.80;;;0.90;;
16973;SDS011;8603;46.944;7.412;2022-09-09T14:27:27;1.85;;;0.90;;
16973;SDS011;8603;46.944;7.412;2022-09-09T14:29:53;2.28;;;0.98;;
16973;SDS011;8603;46.944;7.412;2022-09-09T14:32:19;4.38;;;1.15;;
16973;SDS011;8603;46.944;7.412;2022-09-09T14:34:46;1.55;;;1.00;;
16973;SDS011;8603;46.944;7.412;2022-09-09T14:37:14;2.42;;;1.27;;
16973;SDS011;8603;46.944;7.412;2022-09-09T14:39:41;0.90;;;0.80;;
16973;SDS011;8603;46.944;7.412;2022-09-09T14:42:09;2.10;;;1.00;;
16973;SDS011;8603;46.944;7.412;2022-09-09T14:44:36;2.10;;;0.90;;
16973;SDS011;8603;46.944;7.412;2022-09-09T14:47:03;1.85;;;0.80;;
16973;SDS011;8603;46.944;7.412;2022-09-09T14:49:33;1.38;;;1.00;;
16973;SDS011;8603;46.944;7.412;2022-09-09T14:51:59;1.30;;;0.90;;
16973;SDS011;8603;46.944;7.412;2022-09-09T14:54:24;6.57;;;1.40;;
16973;SDS011;8603;46.944;7.412;2022-09-09T14:56:50;2.75;;;1.05;;
16973;SDS011;8603;46.944;7.412;2022-09-09T14:59:15;1.52;;;1.00;;
16973;SDS011;8603;46.944;7.412;2022-09-09T15:01:41;3.15;;;0.93;;
16973;SDS011;8603;46.944;7.412;2022-09-09T15:04:06;2.13;;;1.05;;
16973;SDS011;8603;46.944;7.412;2022-09-09T15:06:33;1.98;;;1.15;;
16973;SDS011;8603;46.944;7.412;2022-09-09T15:09:02;1.55;;;1.00;;
16973;SDS011;8603;46.944;7.412;2022-09-09T15:11:29;3.92;;;1.17;;
16973;SDS011;8603;46.944;7.412;2022-09-09T15:13:58;1.60;;;0.90;;
16973;SDS011;8603;46.944;7.412;2022-09-09T15:16:24;2.00;;;1.30;;
16973;SDS011;8603;46.944;7.412;2022-09-09T15:18:53;4.50;;;1.20;;
16973;SDS011;8603;46.944;7.412;2022-09-09T15:21:20;1.95;;;1.20;;
16973;SDS011;8603;46.944;7.412;2022-09-09T15:23:48;1.58;;;1.00;;
16973;SDS011;8603;46.944;7.412;2022-09-09T15:26:14;1.48;;;1.00;;
16973;SDS011;8603;46.944;7.412;2022-09-09T15:28:40;3.67;;;1.05;;
16973;SDS011;8603;46.944;7.412;2022-09-09T15:31:12;2.22;;;1.13;;
16973;SDS011;8603;46.944;7.412;2022-09-09T15:33:48;2.25;;;1.30;;
16973;SDS011;8603;46.944;7.412;2022-09-09T15:36:14;3.40;;;1.30;;
16973;SDS011;8603;46.944;7.412;2022-09-09T15:38:43;3.35;;;1.10;;
16973;SDS011;8603;46.944;7.412;2022-09-09T15:41:09;2.58;;;1.27;;
16973;SDS011;8603;46.944;7.412;2022-09-09T15:43:36;2.15;;;1.48;;
16973;SDS011;8603;46.944;7.412;2022-09-09T15:46:06;2.83;;;1.10;;
16973;SDS011;8603;46.944;7.412;2022-09-09T15:48:52;2.78;;;1.10;;
16973;SDS011;8603;46.944;7.412;2022-09-09T15:51:22;3.08;;;1.20;;
16973;SDS011;8603;46.944;7.412;2022-09-09T15:53:53;2.75;;;1.40;;
16973;SDS011;8603;46.944;7.412;2022-09-09T15:56:24;2.38;;;1.33;;
16973;SDS011;8603;46.944;7.412;2022-09-09T15:58:53;1.98;;;1.33;;
16973;SDS011;8603;46.944;7.412;2022-09-09T16:01:20;2.75;;;1.13;;
16973;SDS011;8603;46.944;7.412;2022-09-09T16:03:46;2.40;;;1.10;;
16973;SDS011;8603;46.944;7.412;2022-09-09T16:06:12;3.40;;;1.00;;
16973;SDS011;8603;46.944;7.412;2022-09-09T16:08:39;1.75;;;0.90;;
16973;SDS011;8603;46.944;7.412;2022-09-09T16:11:10;2.30;;;0.90;;
16973;SDS011;8603;46.944;7.412;2022-09-09T16:13:42;4.10;;;1.10;;
16973;SDS011;8603;46.944;7.412;2022-09-09T16:16:12;1.48;;;1.05;;
16973;SDS011;8603;46.944;7.412;2022-09-09T16:18:50;1.42;;;1.10;;
16973;SDS011;8603;46.944;7.412;2022-09-09T16:21:21;2.92;;;1.30;;
16973;SDS011;8603;46.944;7.412;2022-09-09T16:23:54;2.47;;;1.05;;
16973;SDS011;8603;46.944;7.412;2022-09-09T16:26:24;2.00;;;1.10;;
16973;SDS011;8603;46.944;7.412;2022-09-09T16:28:52;2.58;;;1.10;;
16973;SDS011;8603;46.944;7.412;2022-09-09T16:31:21;2.17;;;1.10;;
16973;SDS011;8603;46.944;7.412;2022-09-09T16:33:48;1.10;;;1.00;;
16973;SDS011;8603;46.944;7.412;2022-09-09T16:36:16;2.83;;;1.20;;
16973;SDS011;8603;46.944;7.412;2022-09-09T16:38:43;2.03;;;1.10;;
16973;SDS011;8603;46.944;7.412;2022-09-09T16:41:10;1.25;;;1.00;;
16973;SDS011;8603;46.944;7.412;2022-09-09T16:43:36;1.48;;;0.95;;
16973;SDS011;8603;46.944;7.412;2022-09-09T16:46:03;2.53;;;1.10;;
16973;SDS011;8603;46.944;7.412;2022-09-09T16:48:36;2.63;;;0.90;;
16973;SDS011;8603;46.944;7.412;2022-09-09T16:51:02;0.90;;;0.90;;
16973;SDS011;8603;46.944;7.412;2022-09-09T16:53:31;2.95;;;1.10;;
16973;SDS011;8603;46.944;7.412;2022-09-09T16:55:57;3.75;;;1.00;;
16973;SDS011;8603;46.944;7.412;2022-09-09T16:58:23;2.28;;;1.45;;
16973;SDS011;8603;46.944;7.412;2022-09-09T17:00:48;1.75;;;1.00;;
16973;SDS011;8603;46.944;7.412;2022-09-09T17:03:16;3.35;;;1.20;;
16973;SDS011;8603;46.944;7.412;2022-09-09T17:05:41;1.35;;;0.70;;
16973;SDS011;8603;46.944;7.412;2022-09-09T17:08:07;1.17;;;0.80;;
16973;SDS011;8603;46.944;7.412;2022-09-09T17:10:33;1.75;;;0.85;;
16973;SDS011;8603;46.944;7.412;2022-09-09T17:12:58;2.28;;;1.17;;
16973;SDS011;8603;46.944;7.412;2022-09-09T17:18:15;1.20;;;1.10;;
16973;SDS011;8603;46.944;7.412;2022-09-09T17:20:49;2.55;;;1.08;;
16973;SDS011;8603;46.944;7.412;2022-09-09T17:23:15;2.35;;;1.10;;
16973;SDS011;8603;46.944;7.412;2022-09-09T17:25:41;2.35;;;1.60;;
16973;SDS011;8603;46.944;7.412;2022-09-09T17:28:07;2.78;;;1.83;;
16973;SDS011;8603;46.944;7.412;2022-09-09T17:30:36;2.58;;;1.95;;
16973;SDS011;8603;46.944;7.412;2022-09-09T17:33:02;7.45;;;4.63;;
16973;SDS011;8603;46.944;7.412;2022-09-09T17:35:33;6.07;;;3.30;;
16973;SDS011;8603;46.944;7.412;2022-09-09T17:38:25;8.80;;;5.65;;
16973;SDS011;8603;46.944;7.412;2022-09-09T17:41:01;15.75;;;11.32;;
16973;SDS011;8603;46.944;7.412;2022-09-09T17:43:28;13.63;;;10.07;;